Latest Weather Observations for Mount Nowa Nowa

IDV60801

Issued at 8:05 pm EDT Monday 30 March 2015 (issued every 30 minutes, with the page automatically refreshed every 10 minutes)

About weather observations | Map of weather stations | Latest weather observations for VIC | Other Formats
Station Details ID: 084144 Name: MOUNT NOWA NOWA Lat: -37.69 Lon: 148.09 Height: 350.0 m
Data from the previous 72 hours. | See also: Recent months at Mount Nowa Nowa
Date/Time
EDT
Temp
°C
App
Temp
°C
Dew
Point
Rel
Hum
%
Delta-T
°C
Wind Press
QNH
hPa
Press
MSL
hPa
Rain
since 9 am
mm
Dir
 
Spd
km/h
Gust
km/h
Spd
kts
Gust
kts
30/08:00pm 13.8 13.8 12.4 91 0.8 ESE 4 9 2 5 - - 0.0
30/07:30pm 14.1 13.6 12.1 88 1.1 SE 6 11 3 6 - - 0.0
30/07:00pm 14.8 14.3 11.9 83 1.6 SE 6 13 3 7 - - 0.0
30/06:30pm 15.9 15.2 11.3 74 2.5 ESE 6 11 3 6 - - 0.0
30/06:00pm 17.0 16.3 11.3 69 3.1 ESE 6 17 3 9 - - 0.0
30/05:30pm 18.1 17.4 11.4 65 3.7 SE 6 17 3 9 - - 0.0
30/05:00pm 18.7 17.8 11.5 63 4.0 SE 7 15 4 8 - - 0.0
30/04:30pm 19.0 17.8 11.6 62 4.1 SE 9 17 5 9 - - 0.0
30/04:00pm 19.9 18.7 11.7 59 4.6 SSE 9 15 5 8 - - 0.0
30/03:30pm 20.7 19.9 11.6 56 5.1 SSE 7 17 4 9 - - 0.0
30/03:00pm 21.5 20.6 11.5 53 5.7 SSE 7 17 4 9 - - 0.0
30/02:30pm 23.0 21.3 8.3 39 7.9 WSW 7 13 4 7 - - 0.0
30/02:00pm 22.1 21.0 9.9 46 6.7 SW 6 11 3 6 - - 0.0
30/01:30pm 21.5 20.1 8.7 44 6.9 SW 6 7 3 4 - - 0.0
30/01:00pm 21.9 21.5 9.8 46 6.6 WNW 2 6 1 3 - - 0.0
30/12:30pm 20.3 19.7 10.4 53 5.5 SSW 4 7 2 4 - - 0.0
30/12:00pm 19.2 19.1 10.7 58 4.7 SW 2 6 1 3 - - 0.0
30/11:30am 19.0 18.9 10.8 59 4.5 SW 2 4 1 2 - - 0.0
30/11:00am 17.1 16.3 8.3 56 4.6 SSW 2 4 1 2 - - 0.0
30/10:30am 15.8 14.8 9.0 64 3.6 NNW 4 9 2 5 - - 0.0
30/10:00am 14.0 12.4 8.6 70 2.8 NNW 7 13 4 7 - - 0.0
30/09:30am 12.8 10.7 8.1 73 2.4 N 9 15 5 8 - - 0.0
30/09:00am 12.3 10.5 7.8 74 2.2 NNW 7 11 4 6 - - 0.0
30/08:30am 11.6 9.4 7.9 78 1.8 N 9 17 5 9 - - 0.0
30/08:00am 11.2 9.0 7.9 80 1.6 NNW 9 13 5 7 - - 0.0
30/07:30am 11.7 9.9 8.0 78 1.8 NNW 7 13 4 7 - - 0.0
30/07:00am 12.2 10.1 8.3 77 2.0 N 9 15 5 8 - - 0.0
30/06:30am 12.3 10.8 8.6 78 1.9 NNE 6 11 3 6 - - 0.0
30/06:00am 12.4 10.8 8.9 79 1.8 N 7 9 4 5 - - 0.0
30/05:30am 12.4 10.9 8.5 77 2.0 N 6 11 3 6 - - 0.0
30/05:00am 12.1 10.6 8.4 78 1.9 NNE 6 11 3 6 - - 0.0
30/04:30am 11.9 10.4 8.4 79 1.8 NNE 6 9 3 5 - - 0.0
30/04:00am 12.4 11.0 8.9 79 1.8 NNE 6 7 3 4 - - 0.0
30/03:30am 12.3 11.0 9.3 82 1.5 NNE 6 7 3 4 - - 0.0
30/03:00am 12.3 11.2 9.9 85 1.2 NNE 6 13 3 7 - - 0.0
30/02:30am 12.2 11.1 9.8 85 1.2 N 6 11 3 6 - - 0.0
30/02:00am 12.9 11.7 9.7 81 1.7 N 6 7 3 4 - - 0.0
30/01:30am 13.0 12.2 9.6 80 1.8 NNE 4 6 2 3 - - 0.0
30/01:00am 12.9 12.2 9.9 82 1.6 ENE 4 6 2 3 - - 0.0
30/12:30am 13.2 12.4 9.6 79 1.9 ENE 4 6 2 3 - - 0.0
30/12:00am 13.0 12.3 10.2 83 1.5 ENE 4 6 2 3 - - 0.0
 
Date/Time
EDT
Temp
°C
App
Temp
°C
Dew
Point
Rel
Hum
%
Delta-T
°C
Wind Press
QNH
hPa
Press
MSL
hPa
Rain
since 9 am
mm
Dir
 
Spd
km/h
Gust
km/h
Spd
kts
Gust
kts
29/11:30pm 13.2 12.3 9.3 77 2.0 E 4 7 2 4 - - 0.0
29/11:00pm 13.1 12.2 10.6 85 1.3 E 6 9 3 5 - - 0.0
29/10:30pm 12.9 12.0 11.3 90 0.9 ENE 7 11 4 6 - - 0.0
29/10:00pm 12.6 11.8 11.2 91 0.7 E 6 9 3 5 - - 0.0
29/09:30pm 12.4 11.9 10.8 90 0.8 E 4 7 2 4 - - 0.0
29/09:00pm 12.7 12.2 10.6 87 1.1 ESE 4 9 2 5 - - 0.0
29/08:30pm 12.8 11.8 10.3 85 1.3 ESE 6 9 3 5 - - 0.0
29/08:00pm 13.2 12.2 10.2 82 1.6 ESE 6 13 3 7 - - 0.0
29/07:30pm 13.7 12.5 10.3 80 1.8 ESE 7 13 4 7 - - 0.0
29/07:00pm 14.6 13.4 10.2 75 2.3 ESE 7 11 4 6 - - 0.0
29/06:30pm 15.9 14.8 10.0 68 3.1 SE 6 13 3 7 - - 0.0
29/06:00pm 17.4 16.1 9.8 61 4.1 SSE 7 19 4 10 - - 0.0
29/05:30pm 18.2 17.0 9.5 57 4.7 SE 6 11 3 6 - - 0.0
29/05:00pm 18.9 17.5 9.7 55 5.0 SE 7 15 4 8 - - 0.0
29/04:30pm 19.0 17.1 9.2 53 5.2 SSE 9 19 5 10 - - 0.0
29/04:00pm 20.5 19.3 10.3 52 5.6 SE 7 19 4 10 - - 0.0
29/03:30pm 21.3 20.4 10.8 51 5.9 SE 6 11 3 6 - - 0.0
29/03:00pm 21.5 20.4 8.4 43 7.0 SW 4 13 2 7 - - 0.0
29/02:30pm 21.0 19.8 8.0 43 6.9 W 4 7 2 4 - - 0.0
29/02:00pm 21.3 20.3 8.9 45 6.7 SW 4 11 2 6 - - 0.0
29/01:30pm 21.3 19.7 8.2 43 7.0 W 6 11 3 6 - - 0.0
29/01:00pm 20.7 19.4 9.3 48 6.2 WSW 6 13 3 7 - - 0.0
29/12:30pm 19.5 18.3 9.4 52 5.4 WNW 6 11 3 6 - - 0.0
29/12:00pm 18.1 17.5 10.5 61 4.1 NW 4 6 2 3 - - 0.0
29/11:30am 16.9 16.1 9.8 63 3.8 WNW 4 9 2 5 - - 0.0
29/11:00am 15.4 14.1 9.1 66 3.3 NW 6 9 3 5 - - 0.0
29/10:30am 13.4 11.8 8.7 73 2.4 NNW 7 9 4 5 - - 0.0
29/10:00am 11.9 10.1 7.2 73 2.3 NW 6 9 3 5 - - 0.0
29/09:30am 10.7 8.6 6.6 76 2.0 NW 7 11 4 6 - - 0.0
29/09:00am 10.1 8.1 6.3 77 1.8 NW 6 9 3 5 - - 0.0
29/08:30am 9.5 7.3 6.4 81 1.5 NNW 7 13 4 7 - - 0.0
29/08:00am 9.7 7.2 6.4 80 1.6 NNW 9 13 5 7 - - 0.0
29/07:30am 9.9 8.0 6.6 80 1.6 NW 6 9 3 5 - - 0.0
29/07:00am 9.7 8.3 7.1 84 1.3 NW 4 7 2 4 - - 0.0
29/06:30am 9.8 8.0 7.2 84 1.3 NW 6 6 3 3 - - 0.0
29/06:00am 10.2 8.6 7.8 85 1.2 NNW 6 7 3 4 - - 0.0
29/05:30am 10.0 8.4 7.8 86 1.1 N 6 7 3 4 - - 0.0
29/05:00am 9.9 7.6 7.5 85 1.2 NNW 9 13 5 7 - - 0.0
29/04:30am 10.6 8.4 7.8 83 1.4 N 9 11 5 6 - - 0.0
29/04:00am 11.1 9.3 8.1 82 1.5 N 7 11 4 6 - - 0.0
29/03:30am 11.2 9.4 8.1 81 1.5 N 7 11 4 6 - - 0.0
29/03:00am 10.8 9.0 8.0 83 1.4 N 7 15 4 8 - - 0.0
29/02:30am 11.3 9.6 8.3 82 1.5 N 7 15 4 8 - - 0.0
29/02:00am 11.2 9.5 8.2 82 1.5 N 7 13 4 7 - - 0.0
29/01:30am 11.3 9.6 8.5 83 1.4 N 7 15 4 8 - - 0.0
29/01:00am 11.0 9.3 8.4 84 1.3 NNE 7 17 4 9 - - 0.0
29/12:30am 11.4 9.9 8.4 82 1.5 NNE 6 11 3 6 - - 0.0
29/12:00am 11.3 10.1 8.2 81 1.5 NE 4 9 2 5 - - 0.0
 
Date/Time
EDT
Temp
°C
App
Temp
°C
Dew
Point
Rel
Hum
%
Delta-T
°C
Wind Press
QNH
hPa
Press
MSL
hPa
Rain
since 9 am
mm
Dir
 
Spd
km/h
Gust
km/h
Spd
kts
Gust
kts
28/11:30pm 11.5 10.0 8.4 81 1.6 ENE 6 9 3 5 - - 0.0
28/11:00pm 11.9 10.4 8.4 79 1.8 ENE 6 7 3 4 - - 0.0
28/10:30pm 12.1 10.7 8.8 80 1.7 ENE 6 9 3 5 - - 0.0
28/10:00pm 12.0 10.6 8.7 80 1.7 ENE 6 7 3 4 - - 0.0
28/09:30pm 12.2 10.8 8.9 80 1.7 ENE 6 9 3 5 - - 0.0
28/09:00pm 12.0 11.0 8.7 80 1.7 E 4 6 2 3 - - 0.0
28/08:30pm 11.4 10.3 8.4 82 1.5 ESE 4 6 2 3 - - 0.0
28/08:00pm 11.8 10.7 8.5 80 1.7 ESE 4 9 2 5 - - 0.0
28/07:30pm 12.1 10.6 8.4 78 1.9 SE 6 9 3 5 - - 0.0
28/07:00pm 13.0 11.5 8.3 73 2.4 SE 6 9 3 5 - - 0.0
28/06:30pm 13.7 12.6 8.3 70 2.7 SE 4 9 2 5 - - 0.0
28/06:00pm 14.5 13.1 8.7 68 3.0 SSE 6 9 3 5 - - 0.0
28/05:30pm 15.2 13.6 8.7 65 3.4 SSE 7 13 4 7 - - 0.0
28/05:00pm 16.4 14.8 8.9 61 3.9 S 7 11 4 6 - - 0.0
28/04:30pm 17.1 15.5 8.8 58 4.4 SW 7 13 4 7 - - 0.0
28/04:00pm 18.5 17.1 9.0 54 5.0 SW 6 9 3 5 - - 0.0
28/03:30pm 17.4 15.9 8.5 56 4.7 SSW 6 15 3 8 - - 0.0
28/03:00pm 17.9 16.3 8.2 53 5.1 W 6 13 3 7 - - 0.0
28/02:30pm 17.0 15.3 7.6 54 4.8 WSW 6 13 3 7 - - 0.0
28/02:00pm 17.2 15.6 8.1 55 4.7 W 6 13 3 7 - - 0.0
28/01:30pm 16.7 15.1 8.7 59 4.2 W 7 15 4 8 - - 0.0
28/01:00pm 15.7 14.1 8.0 60 3.9 WSW 6 15 3 8 - - 0.0
28/12:30pm 15.2 13.5 7.5 60 3.9 W 6 15 3 8 - - 0.0
28/12:00pm 14.7 12.9 7.3 61 3.7 W 6 11 3 6 - - 0.0
28/11:30am 14.1 12.0 8.1 67 3.0 W 9 20 5 11 - - 0.0
28/11:00am 14.5 12.4 8.2 66 3.2 W 9 15 5 8 - - 0.0
28/10:30am 12.8 10.7 8.3 74 2.3 W 9 19 5 10 - - 0.0
28/10:00am 12.4 10.4 8.5 77 2.0 WNW 9 15 5 8 - - 0.0
28/09:30am 11.5 9.8 8.2 80 1.6 W 7 13 4 7 - - 0.0
28/09:00am 10.3 8.4 7.5 83 1.4 WNW 7 13 4 7 - - 1.2
28/08:30am 9.5 7.2 7.3 86 1.1 WNW 9 15 5 8 - - 1.2
28/08:00am 9.1 6.7 7.2 88 0.9 WNW 9 17 5 9 - - 1.2
28/07:30am 9.1 6.4 7.2 88 0.9 W 11 15 6 8 - - 1.2
28/07:00am 9.0 6.3 7.3 89 0.8 W 11 15 6 8 - - 1.2
28/06:30am 9.0 6.3 7.3 89 0.8 W 11 15 6 8 - - 1.2
28/06:00am 9.2 6.5 7.5 89 0.8 W 11 15 6 8 - - 1.2
28/05:30am 9.5 6.9 7.6 88 0.9 W 11 19 6 10 - - 1.2
28/05:00am 9.6 6.6 7.7 88 0.9 W 13 20 7 11 - - 1.2
28/04:30am 9.4 6.0 7.5 88 0.9 W 15 24 8 13 - - 1.2
28/04:00am 9.5 6.5 7.6 88 0.9 W 13 22 7 12 - - 1.2
28/03:30am 9.7 6.7 7.8 88 0.9 W 13 24 7 13 - - 1.2
28/03:00am 9.9 6.9 7.8 87 1.0 W 13 26 7 14 - - 1.2
28/02:30am 10.1 7.2 8.0 87 1.0 W 13 24 7 13 - - 1.2
28/02:00am 10.2 6.9 8.0 86 1.1 W 15 30 8 16 - - 1.2
28/01:30am 10.3 6.6 7.9 85 1.2 W 17 33 9 18 - - 1.2
28/01:00am 10.3 7.0 8.1 86 1.1 W 15 28 8 15 - - 1.2
28/12:30am 10.3 6.6 8.1 86 1.1 W 17 28 9 15 - - 1.2
28/12:00am 10.4 6.7 8.0 85 1.2 W 17 35 9 19 - - 1.2
 
Date/Time
EDT
Temp
°C
App
Temp
°C
Dew
Point
Rel
Hum
%
Delta-T
°C
Wind Press
QNH
hPa
Press
MSL
hPa
Rain
since 9 am
mm
Dir
 
Spd
km/h
Gust
km/h
Spd
kts
Gust
kts
27/11:30pm 10.6 7.0 8.2 85 1.2 W 17 28 9 15 - - 1.2
27/11:00pm 10.7 7.1 8.3 85 1.2 W 17 33 9 18 - - 1.2
27/10:30pm 11.0 7.0 8.2 83 1.4 W 19 39 10 21 - - 1.2
27/10:00pm 11.2 7.6 8.4 83 1.4 W 17 33 9 18 - - 1.2
27/09:30pm 11.4 7.8 8.3 81 1.6 W 17 44 9 24 - - 1.2
27/09:00pm 11.6 8.0 8.3 80 1.7 WSW 17 32 9 17 - - 1.2
27/08:30pm 11.9 7.9 8.2 78 1.9 W 19 35 10 19 - - 1.2

Other Formats:

Comma delimited format used in spreadsheet applications
http://www.bom.gov.au/fwo/IDV60801/IDV60801.94930.axf

JavaScript Object Notation format (JSON) in row-major order
http://www.bom.gov.au/fwo/IDV60801/IDV60801.94930.json